sensor_id;sensor_type;location;lat;lon;timestamp;pressure;altitude;pressure_sealevel;temperature;humidity
12475;BME280;6302;42.624;23.334;2022-08-06T00:00:10;93201.44;;;21.77;83.46
12475;BME280;6302;42.624;23.334;2022-08-06T00:02:37;93202.38;;;21.74;84.03
12475;BME280;6302;42.624;23.334;2022-08-06T00:05:05;93210.63;;;21.70;84.36
12475;BME280;6302;42.624;23.334;2022-08-06T00:07:33;93211.59;;;21.67;83.89
12475;BME280;6302;42.624;23.334;2022-08-06T00:10:00;93215.38;;;21.61;84.28
12475;BME280;6302;42.624;23.334;2022-08-06T00:12:28;93211.63;;;21.58;85.11
12475;BME280;6302;42.624;23.334;2022-08-06T00:14:55;93214.97;;;21.53;85.75
12475;BME280;6302;42.624;23.334;2022-08-06T00:17:22;93219.81;;;21.49;86.00
12475;BME280;6302;42.624;23.334;2022-08-06T00:19:50;93210.72;;;21.47;86.51
12475;BME280;6302;42.624;23.334;2022-08-06T00:22:17;93214.03;;;21.42;87.01
12475;BME280;6302;42.624;23.334;2022-08-06T00:24:45;93213.75;;;21.39;86.82
12475;BME280;6302;42.624;23.334;2022-08-06T00:27:12;93212.47;;;21.35;86.62
12475;BME280;6302;42.624;23.334;2022-08-06T00:29:39;93218.59;;;21.35;87.15
12475;BME280;6302;42.624;23.334;2022-08-06T00:32:06;93210.22;;;21.33;87.71
12475;BME280;6302;42.624;23.334;2022-08-06T00:34:33;93210.84;;;21.28;87.27
12475;BME280;6302;42.624;23.334;2022-08-06T00:37:00;93212.50;;;21.26;88.00
12475;BME280;6302;42.624;23.334;2022-08-06T00:39:27;93207.31;;;21.22;88.53
12475;BME280;6302;42.624;23.334;2022-08-06T00:41:55;93212.13;;;21.18;88.38
12475;BME280;6302;42.624;23.334;2022-08-06T00:44:22;93207.66;;;21.15;88.28
12475;BME280;6302;42.624;23.334;2022-08-06T00:46:49;93206.91;;;21.15;88.01
12475;BME280;6302;42.624;23.334;2022-08-06T00:49:16;93206.16;;;21.14;88.11
12475;BME280;6302;42.624;23.334;2022-08-06T00:51:42;93203.94;;;21.13;89.00
12475;BME280;6302;42.624;23.334;2022-08-06T00:54:09;93204.38;;;21.11;89.31
12475;BME280;6302;42.624;23.334;2022-08-06T00:56:36;93212.19;;;21.09;89.72
12475;BME280;6302;42.624;23.334;2022-08-06T00:59:05;93207.41;;;21.04;90.23
12475;BME280;6302;42.624;23.334;2022-08-06T01:01:32;93210.72;;;20.99;90.25
12475;BME280;6302;42.624;23.334;2022-08-06T01:03:58;93215.56;;;20.95;90.87
12475;BME280;6302;42.624;23.334;2022-08-06T01:06:25;93213.31;;;20.94;91.49
12475;BME280;6302;42.624;23.334;2022-08-06T01:08:52;93208.13;;;20.90;91.45
12475;BME280;6302;42.624;23.334;2022-08-06T01:11:19;93210.81;;;20.90;91.27
12475;BME280;6302;42.624;23.334;2022-08-06T01:13:46;93210.53;;;20.88;91.59
12475;BME280;6302;42.624;23.334;2022-08-06T01:16:22;93208.47;;;20.83;92.03
12475;BME280;6302;42.624;23.334;2022-08-06T01:18:55;93203.06;;;20.83;91.99
12475;BME280;6302;42.624;23.334;2022-08-06T01:21:38;93203.22;;;20.80;92.66
12475;BME280;6302;42.624;23.334;2022-08-06T01:24:29;93201.00;;;20.78;92.73
12475;BME280;6302;42.624;23.334;2022-08-06T01:27:16;93210.75;;;20.75;92.64
12475;BME280;6302;42.624;23.334;2022-08-06T01:29:51;93208.97;;;20.72;92.85
12475;BME280;6302;42.624;23.334;2022-08-06T01:32:29;93200.59;;;20.70;92.59
12475;BME280;6302;42.624;23.334;2022-08-06T01:35:01;93197.63;;;20.68;93.16
12475;BME280;6302;42.624;23.334;2022-08-06T01:37:32;93193.91;;;20.66;93.32
12475;BME280;6302;42.624;23.334;2022-08-06T01:40:04;93193.91;;;20.66;93.71
12475;BME280;6302;42.624;23.334;2022-08-06T01:42:34;93195.56;;;20.63;93.71
12475;BME280;6302;42.624;23.334;2022-08-06T01:45:03;93199.16;;;20.60;94.30
12475;BME280;6302;42.624;23.334;2022-08-06T01:47:32;93194.25;;;20.59;94.73
12475;BME280;6302;42.624;23.334;2022-08-06T01:50:04;93194.69;;;20.57;95.62
12475;BME280;6302;42.624;23.334;2022-08-06T01:52:35;93196.81;;;20.53;95.80
12475;BME280;6302;42.624;23.334;2022-08-06T01:55:06;93193.38;;;20.53;95.99
12475;BME280;6302;42.624;23.334;2022-08-06T01:57:35;93192.50;;;20.47;96.07
12475;BME280;6302;42.624;23.334;2022-08-06T02:00:04;93192.50;;;20.47;96.01
12475;BME280;6302;42.624;23.334;2022-08-06T02:02:33;93197.88;;;20.47;96.41
12475;BME280;6302;42.624;23.334;2022-08-06T02:05:02;93194.91;;;20.45;96.20
12475;BME280;6302;42.624;23.334;2022-08-06T02:07:34;93191.00;;;20.46;96.59
12475;BME280;6302;42.624;23.334;2022-08-06T02:10:05;93186.06;;;20.44;96.40
12475;BME280;6302;42.624;23.334;2022-08-06T02:12:36;93185.78;;;20.42;96.69
12475;BME280;6302;42.624;23.334;2022-08-06T02:15:06;93179.09;;;20.38;96.64
12475;BME280;6302;42.624;23.334;2022-08-06T02:17:40;93169.53;;;20.37;97.17
12475;BME280;6302;42.624;23.334;2022-08-06T02:20:09;93178.50;;;20.34;95.47
12475;BME280;6302;42.624;23.334;2022-08-06T02:22:38;93177.63;;;20.37;96.06
12475;BME280;6302;42.624;23.334;2022-08-06T02:25:09;93167.28;;;20.35;96.99
12475;BME280;6302;42.624;23.334;2022-08-06T02:27:42;93158.19;;;20.33;97.70
12475;BME280;6302;42.624;23.334;2022-08-06T02:30:11;93160.31;;;20.29;98.44
12475;BME280;6302;42.624;23.334;2022-08-06T02:32:39;93166.88;;;20.28;98.61
12475;BME280;6302;42.624;23.334;2022-08-06T02:35:06;93165.09;;;20.25;98.67
12475;BME280;6302;42.624;23.334;2022-08-06T02:37:39;93159.09;;;20.21;99.18
12475;BME280;6302;42.624;23.334;2022-08-06T02:40:11;93167.19;;;20.21;99.41
12475;BME280;6302;42.624;23.334;2022-08-06T02:42:47;93171.53;;;20.18;98.49
12475;BME280;6302;42.624;23.334;2022-08-06T02:45:19;93162.13;;;20.13;96.34
12475;BME280;6302;42.624;23.334;2022-08-06T02:47:50;93166.91;;;20.19;96.13
12475;BME280;6302;42.624;23.334;2022-08-06T02:50:22;93174.50;;;20.20;95.64
12475;BME280;6302;42.624;23.334;2022-08-06T02:52:55;93166.00;;;20.22;96.43
12475;BME280;6302;42.624;23.334;2022-08-06T02:55:26;93173.75;;;20.20;96.44
12475;BME280;6302;42.624;23.334;2022-08-06T02:58:04;93169.31;;;20.17;93.59
12475;BME280;6302;42.624;23.334;2022-08-06T03:00:33;93181.22;;;20.25;95.55
12475;BME280;6302;42.624;23.334;2022-08-06T03:03:04;93168.25;;;20.23;97.81
12475;BME280;6302;42.624;23.334;2022-08-06T03:05:34;93178.25;;;20.23;98.44
12475;BME280;6302;42.624;23.334;2022-08-06T03:08:03;93183.03;;;20.19;99.45
12475;BME280;6302;42.624;23.334;2022-08-06T03:10:33;93181.25;;;20.16;99.52
12475;BME280;6302;42.624;23.334;2022-08-06T03:13:02;93188.47;;;20.09;99.92
12475;BME280;6302;42.624;23.334;2022-08-06T03:15:32;93189.94;;;20.10;99.39
12475;BME280;6302;42.624;23.334;2022-08-06T03:18:01;93190.25;;;20.03;100.00
12475;BME280;6302;42.624;23.334;2022-08-06T03:20:30;93203.25;;;20.05;100.00
12475;BME280;6302;42.624;23.334;2022-08-06T03:22:59;93195.66;;;20.03;100.00
12475;BME280;6302;42.624;23.334;2022-08-06T03:25:27;93192.38;;;19.99;100.00
12475;BME280;6302;42.624;23.334;2022-08-06T03:27:56;93189.38;;;19.97;100.00
12475;BME280;6302;42.624;23.334;2022-08-06T03:30:26;93192.53;;;19.96;100.00
12475;BME280;6302;42.624;23.334;2022-08-06T03:32:53;93190.00;;;19.92;100.00
12475;BME280;6302;42.624;23.334;2022-08-06T03:35:21;93187.28;;;19.92;100.00
12475;BME280;6302;42.624;23.334;2022-08-06T03:37:49;93184.31;;;19.90;100.00
12475;BME280;6302;42.624;23.334;2022-08-06T03:40:18;93177.91;;;19.88;100.00
12475;BME280;6302;42.624;23.334;2022-08-06T03:42:46;93183.00;;;19.86;100.00
12475;BME280;6302;42.624;23.334;2022-08-06T03:45:13;93187.94;;;19.87;100.00
12475;BME280;6302;42.624;23.334;2022-08-06T03:47:47;93182.84;;;19.89;100.00
12475;BME280;6302;42.624;23.334;2022-08-06T03:50:20;93188.66;;;19.88;100.00
12475;BME280;6302;42.624;23.334;2022-08-06T03:52:50;93188.81;;;19.93;100.00
12475;BME280;6302;42.624;23.334;2022-08-06T03:55:21;93190.00;;;19.92;100.00
12475;BME280;6302;42.624;23.334;2022-08-06T03:57:51;93200.13;;;19.97;100.00
12475;BME280;6302;42.624;23.334;2022-08-06T04:00:22;93188.94;;;19.99;100.00
12475;BME280;6302;42.624;23.334;2022-08-06T04:02:53;93191.91;;;20.01;100.00
12475;BME280;6302;42.624;23.334;2022-08-06T04:05:25;93189.38;;;20.06;100.00
12475;BME280;6302;42.624;23.334;2022-08-06T04:07:56;93191.44;;;20.11;100.00
12475;BME280;6302;42.624;23.334;2022-08-06T04:10:26;93190.81;;;20.17;100.00
12475;BME280;6302;42.624;23.334;2022-08-06T04:12:55;93191.72;;;20.23;100.00
12475;BME280;6302;42.624;23.334;2022-08-06T04:15:23;93202.13;;;20.30;100.00
12475;BME280;6302;42.624;23.334;2022-08-06T04:17:53;93202.13;;;20.39;100.00
12475;BME280;6302;42.624;23.334;2022-08-06T04:20:23;93206.25;;;20.49;100.00
12475;BME280;6302;42.624;23.334;2022-08-06T04:22:51;93204.41;;;20.55;99.77
12475;BME280;6302;42.624;23.334;2022-08-06T04:25:18;93211.94;;;20.74;99.26
12475;BME280;6302;42.624;23.334;2022-08-06T04:27:46;93211.16;;;20.83;98.74
12475;BME280;6302;42.624;23.334;2022-08-06T04:30:15;93211.84;;;20.93;97.55
12475;BME280;6302;42.624;23.334;2022-08-06T04:32:43;93216.72;;;21.03;97.18
12475;BME280;6302;42.624;23.334;2022-08-06T04:35:13;93211.91;;;21.07;96.34
12475;BME280;6302;42.624;23.334;2022-08-06T04:37:40;93214.13;;;21.09;94.57
12475;BME280;6302;42.624;23.334;2022-08-06T04:40:09;93216.03;;;21.17;95.41
12475;BME280;6302;42.624;23.334;2022-08-06T04:42:37;93217.81;;;21.20;96.34
12475;BME280;6302;42.624;23.334;2022-08-06T04:45:06;93223.28;;;21.26;98.10
12475;BME280;6302;42.624;23.334;2022-08-06T04:47:34;93222.72;;;21.22;99.59
12475;BME280;6302;42.624;23.334;2022-08-06T04:50:02;93222.56;;;21.25;99.85
12475;BME280;6302;42.624;23.334;2022-08-06T04:52:31;93230.03;;;21.30;98.84
12475;BME280;6302;42.624;23.334;2022-08-06T04:54:57;93233.81;;;21.38;97.68
12475;BME280;6302;42.624;23.334;2022-08-06T04:57:24;93228.00;;;21.40;97.48
12475;BME280;6302;42.624;23.334;2022-08-06T04:59:51;93234.50;;;21.48;98.03
12475;BME280;6302;42.624;23.334;2022-08-06T05:02:18;93234.69;;;21.45;96.58
12475;BME280;6302;42.624;23.334;2022-08-06T05:04:45;93244.09;;;21.49;94.75
12475;BME280;6302;42.624;23.334;2022-08-06T05:07:20;93241.22;;;21.53;93.68
12475;BME280;6302;42.624;23.334;2022-08-06T05:09:50;93247.16;;;21.57;92.16
12475;BME280;6302;42.624;23.334;2022-08-06T05:12:19;93246.44;;;21.71;92.30
12475;BME280;6302;42.624;23.334;2022-08-06T05:14:51;93244.59;;;21.77;91.28
12475;BME280;6302;42.624;23.334;2022-08-06T05:17:21;93246.06;;;21.78;91.75
12475;BME280;6302;42.624;23.334;2022-08-06T05:19:53;93231.22;;;21.82;92.35
12475;BME280;6302;42.624;23.334;2022-08-06T05:22:22;93248.38;;;21.94;92.01
12475;BME280;6302;42.624;23.334;2022-08-06T05:24:51;93248.00;;;22.01;89.73
12475;BME280;6302;42.624;23.334;2022-08-06T05:27:18;93241.28;;;22.11;88.78
12475;BME280;6302;42.624;23.334;2022-08-06T05:29:45;93243.34;;;22.16;88.21
12475;BME280;6302;42.624;23.334;2022-08-06T05:32:13;93243.34;;;22.16;88.03
12475;BME280;6302;42.624;23.334;2022-08-06T05:34:39;93246.13;;;22.22;87.51
12475;BME280;6302;42.624;23.334;2022-08-06T05:37:06;93248.34;;;22.23;86.08
12475;BME280;6302;42.624;23.334;2022-08-06T05:39:33;93248.88;;;22.42;84.34
12475;BME280;6302;42.624;23.334;2022-08-06T05:42:01;93252.03;;;22.55;82.24
12475;BME280;6302;42.624;23.334;2022-08-06T05:44:28;93248.31;;;22.67;82.34
12475;BME280;6302;42.624;23.334;2022-08-06T05:46:57;93255.97;;;22.69;81.59
12475;BME280;6302;42.624;23.334;2022-08-06T05:49:31;93251.28;;;22.84;81.32
12475;BME280;6302;42.624;23.334;2022-08-06T05:52:04;93247.75;;;22.98;81.40
12475;BME280;6302;42.624;23.334;2022-08-06T05:54:36;93237.75;;;23.04;81.17
12475;BME280;6302;42.624;23.334;2022-08-06T05:57:10;93236.69;;;23.16;81.07
12475;BME280;6302;42.624;23.334;2022-08-06T05:59:43;93240.69;;;23.20;81.10
12475;BME280;6302;42.624;23.334;2022-08-06T06:02:11;93242.66;;;23.40;79.21
12475;BME280;6302;42.624;23.334;2022-08-06T06:04:43;93251.31;;;23.44;81.06
12475;BME280;6302;42.624;23.334;2022-08-06T06:07:12;93241.31;;;23.50;79.63
12475;BME280;6302;42.624;23.334;2022-08-06T06:09:40;93242.25;;;23.47;78.77
12475;BME280;6302;42.624;23.334;2022-08-06T06:12:10;93241.31;;;23.50;79.08
12475;BME280;6302;42.624;23.334;2022-08-06T06:14:39;93245.81;;;23.59;78.14
12475;BME280;6302;42.624;23.334;2022-08-06T06:17:27;93238.97;;;23.63;78.50
12475;BME280;6302;42.624;23.334;2022-08-06T06:20:05;93235.47;;;23.77;77.24
12475;BME280;6302;42.624;23.334;2022-08-06T06:22:39;93235.03;;;23.84;76.57
12475;BME280;6302;42.624;23.334;2022-08-06T06:25:11;93231.34;;;23.87;76.94
12475;BME280;6302;42.624;23.334;2022-08-06T06:27:47;93233.84;;;23.91;77.55
12475;BME280;6302;42.624;23.334;2022-08-06T06:30:19;93235.38;;;23.98;78.13
12475;BME280;6302;42.624;23.334;2022-08-06T06:32:52;93237.19;;;24.06;75.68
12475;BME280;6302;42.624;23.334;2022-08-06T06:35:32;93225.63;;;24.06;77.31
12475;BME280;6302;42.624;23.334;2022-08-06T06:38:11;93232.88;;;24.14;75.85
12475;BME280;6302;42.624;23.334;2022-08-06T06:40:48;93222.88;;;24.26;75.58
12475;BME280;6302;42.624;23.334;2022-08-06T06:43:22;93225.19;;;24.38;74.58
12475;BME280;6302;42.624;23.334;2022-08-06T06:45:56;93226.00;;;24.50;73.98
12475;BME280;6302;42.624;23.334;2022-08-06T06:48:34;93220.59;;;24.50;73.22
12475;BME280;6302;42.624;23.334;2022-08-06T06:51:06;93217.88;;;24.50;72.49
12475;BME280;6302;42.624;23.334;2022-08-06T06:53:37;93226.03;;;24.55;71.84
12475;BME280;6302;42.624;23.334;2022-08-06T06:56:07;93224.38;;;24.64;71.31
12475;BME280;6302;42.624;23.334;2022-08-06T06:58:39;93216.81;;;24.73;71.14
12475;BME280;6302;42.624;23.334;2022-08-06T07:01:09;93222.84;;;24.88;71.73
12475;BME280;6302;42.624;23.334;2022-08-06T07:03:38;93220.16;;;24.99;69.68
12475;BME280;6302;42.624;23.334;2022-08-06T07:06:06;93219.00;;;25.06;69.79
12475;BME280;6302;42.624;23.334;2022-08-06T07:08:38;93215.06;;;25.12;69.52
12475;BME280;6302;42.624;23.334;2022-08-06T07:11:10;93216.84;;;25.27;69.61
12475;BME280;6302;42.624;23.334;2022-08-06T07:13:44;93214.69;;;25.42;70.07
12475;BME280;6302;42.624;23.334;2022-08-06T07:16:13;93215.75;;;25.61;68.68
12475;BME280;6302;42.624;23.334;2022-08-06T07:18:44;93208.56;;;25.47;66.71
12475;BME280;6302;42.624;23.334;2022-08-06T07:21:14;93212.78;;;25.48;67.65
12475;BME280;6302;42.624;23.334;2022-08-06T07:23:42;93215.06;;;25.71;69.11
12475;BME280;6302;42.624;23.334;2022-08-06T07:26:13;93211.88;;;25.90;67.99
12475;BME280;6302;42.624;23.334;2022-08-06T07:28:42;93210.41;;;25.94;65.52
12475;BME280;6302;42.624;23.334;2022-08-06T07:31:10;93204.72;;;25.92;64.32
12475;BME280;6302;42.624;23.334;2022-08-06T07:33:41;93200.78;;;25.93;66.89
12475;BME280;6302;42.624;23.334;2022-08-06T07:36:14;93207.97;;;26.13;64.07
12475;BME280;6302;42.624;23.334;2022-08-06T07:38:44;93200.56;;;26.35;65.81
12475;BME280;6302;42.624;23.334;2022-08-06T07:41:13;93195.88;;;26.47;63.57
12475;BME280;6302;42.624;23.334;2022-08-06T07:43:46;93200.31;;;26.61;62.54
12475;BME280;6302;42.624;23.334;2022-08-06T07:46:19;93195.13;;;26.69;60.21
12475;BME280;6302;42.624;23.334;2022-08-06T07:48:52;93197.09;;;26.74;59.74
12475;BME280;6302;42.624;23.334;2022-08-06T07:51:21;93201.03;;;26.84;60.32
12475;BME280;6302;42.624;23.334;2022-08-06T07:53:50;93203.50;;;26.93;61.38
12475;BME280;6302;42.624;23.334;2022-08-06T07:56:18;93198.50;;;27.08;57.72
12475;BME280;6302;42.624;23.334;2022-08-06T07:58:47;93200.94;;;27.17;57.98
12475;BME280;6302;42.624;23.334;2022-08-06T08:01:15;93200.13;;;27.39;57.98
12475;BME280;6302;42.624;23.334;2022-08-06T08:03:43;93205.78;;;27.46;55.89
12475;BME280;6302;42.624;23.334;2022-08-06T08:09:51;93194.78;;;27.68;54.03
12475;BME280;6302;42.624;23.334;2022-08-06T08:12:18;93194.34;;;27.64;52.54
12475;BME280;6302;42.624;23.334;2022-08-06T08:14:47;93195.47;;;27.80;53.96
12475;BME280;6302;42.624;23.334;2022-08-06T08:17:15;93199.84;;;27.94;53.29
12475;BME280;6302;42.624;23.334;2022-08-06T08:19:42;93194.13;;;27.98;48.96
12475;BME280;6302;42.624;23.334;2022-08-06T08:22:11;93174.91;;;27.85;44.92
12475;BME280;6302;42.624;23.334;2022-08-06T08:24:40;93196.72;;;28.20;47.13
12475;BME280;6302;42.624;23.334;2022-08-06T08:27:08;93197.31;;;28.37;47.73
12475;BME280;6302;42.624;23.334;2022-08-06T08:29:36;93201.69;;;28.51;48.95
12475;BME280;6302;42.624;23.334;2022-08-06T08:32:06;93192.34;;;28.71;46.47
12475;BME280;6302;42.624;23.334;2022-08-06T08:34:34;93194.13;;;28.92;46.76
12475;BME280;6302;42.624;23.334;2022-08-06T08:37:02;93199.06;;;28.94;44.30
12475;BME280;6302;42.624;23.334;2022-08-06T08:39:29;93199.97;;;29.02;41.42
12475;BME280;6302;42.624;23.334;2022-08-06T08:42:02;93200.13;;;29.10;42.88
12475;BME280;6302;42.624;23.334;2022-08-06T08:44:33;93200.53;;;29.19;43.39
12475;BME280;6302;42.624;23.334;2022-08-06T08:47:00;93192.97;;;29.31;43.71
12475;BME280;6302;42.624;23.334;2022-08-06T08:49:37;93194.19;;;29.54;43.18
12475;BME280;6302;42.624;23.334;2022-08-06T08:52:07;93192.28;;;29.68;41.70
12475;BME280;6302;42.624;23.334;2022-08-06T08:54:36;93197.59;;;29.60;41.14
12475;BME280;6302;42.624;23.334;2022-08-06T08:57:07;93198.69;;;29.70;41.67
12475;BME280;6302;42.624;23.334;2022-08-06T08:59:35;93192.72;;;29.90;42.16
12475;BME280;6302;42.624;23.334;2022-08-06T09:02:02;93196.91;;;30.10;41.26
12475;BME280;6302;42.624;23.334;2022-08-06T09:04:32;93196.81;;;30.15;40.90
12475;BME280;6302;42.624;23.334;2022-08-06T09:06:59;93193.78;;;30.19;41.55
12475;BME280;6302;42.624;23.334;2022-08-06T09:09:26;93193.69;;;30.24;39.65
12475;BME280;6302;42.624;23.334;2022-08-06T09:11:55;93195.78;;;30.18;37.65
12475;BME280;6302;42.624;23.334;2022-08-06T09:14:22;93191.81;;;30.19;38.35
12475;BME280;6302;42.624;23.334;2022-08-06T09:16:49;93190.03;;;30.22;37.72
12475;BME280;6302;42.624;23.334;2022-08-06T09:19:16;93197.09;;;30.31;40.06
12475;BME280;6302;42.624;23.334;2022-08-06T09:21:45;93186.97;;;30.44;40.95
12475;BME280;6302;42.624;23.334;2022-08-06T09:24:12;93189.84;;;30.65;40.73
12475;BME280;6302;42.624;23.334;2022-08-06T09:27:03;93197.66;;;30.87;39.96
12475;BME280;6302;42.624;23.334;2022-08-06T09:29:30;93174.75;;;30.90;36.10
12475;BME280;6302;42.624;23.334;2022-08-06T09:31:58;93173.38;;;30.97;36.97
12475;BME280;6302;42.624;23.334;2022-08-06T09:34:31;93178.00;;;31.15;38.05
12475;BME280;6302;42.624;23.334;2022-08-06T09:36:59;93171.59;;;31.25;37.75
12475;BME280;6302;42.624;23.334;2022-08-06T09:39:31;93177.47;;;31.42;36.04
12475;BME280;6302;42.624;23.334;2022-08-06T09:42:00;93178.00;;;31.41;35.26
12475;BME280;6302;42.624;23.334;2022-08-06T09:44:27;93176.53;;;31.40;36.50
12475;BME280;6302;42.624;23.334;2022-08-06T09:46:54;93177.59;;;31.50;37.21
12475;BME280;6302;42.624;23.334;2022-08-06T09:49:23;93176.19;;;31.43;35.13
12475;BME280;6302;42.624;23.334;2022-08-06T09:51:50;93169.03;;;31.53;35.50
12475;BME280;6302;42.624;23.334;2022-08-06T09:54:18;93175.16;;;31.46;34.47
12475;BME280;6302;42.624;23.334;2022-08-06T09:56:56;93167.56;;;31.26;34.78
12475;BME280;6302;42.624;23.334;2022-08-06T09:59:23;93170.09;;;31.37;35.73
12475;BME280;6302;42.624;23.334;2022-08-06T10:01:50;93179.91;;;31.46;34.81
12475;BME280;6302;42.624;23.334;2022-08-06T10:04:25;93164.19;;;31.60;34.71
12475;BME280;6302;42.624;23.334;2022-08-06T10:06:53;93162.59;;;31.64;34.77
12475;BME280;6302;42.624;23.334;2022-08-06T10:09:22;93156.56;;;31.79;35.49
12475;BME280;6302;42.624;23.334;2022-08-06T10:11:49;93152.78;;;32.02;35.49
12475;BME280;6302;42.624;23.334;2022-08-06T10:14:23;93150.19;;;32.17;33.29
12475;BME280;6302;42.624;23.334;2022-08-06T10:17:03;93153.75;;;32.26;33.04
12475;BME280;6302;42.624;23.334;2022-08-06T10:19:31;93145.22;;;32.29;33.88
12475;BME280;6302;42.624;23.334;2022-08-06T10:22:03;93145.47;;;32.39;33.33
12475;BME280;6302;42.624;23.334;2022-08-06T10:24:31;93146.75;;;32.17;33.98
12475;BME280;6302;42.624;23.334;2022-08-06T10:26:58;93149.00;;;32.26;34.28
12475;BME280;6302;42.624;23.334;2022-08-06T10:29:26;93142.97;;;32.48;34.13
12475;BME280;6302;42.624;23.334;2022-08-06T10:31:55;93148.63;;;32.63;33.31
12475;BME280;6302;42.624;23.334;2022-08-06T10:34:24;93147.72;;;32.27;33.66
12475;BME280;6302;42.624;23.334;2022-08-06T10:36:55;93145.50;;;32.05;33.56
12475;BME280;6302;42.624;23.334;2022-08-06T10:39:26;93144.31;;;32.13;32.02
12475;BME280;6302;42.624;23.334;2022-08-06T10:41:56;93142.31;;;32.14;32.58
12475;BME280;6302;42.624;23.334;2022-08-06T10:44:24;93150.84;;;31.90;32.77
12475;BME280;6302;42.624;23.334;2022-08-06T10:46:52;93140.56;;;31.70;33.11
12475;BME280;6302;42.624;23.334;2022-08-06T10:49:21;93132.16;;;31.88;32.35
12475;BME280;6302;42.624;23.334;2022-08-06T10:51:49;93123.44;;;31.90;31.86
12475;BME280;6302;42.624;23.334;2022-08-06T10:54:16;93131.00;;;32.17;31.42
12475;BME280;6302;42.624;23.334;2022-08-06T10:56:45;93127.81;;;32.27;31.78
12475;BME280;6302;42.624;23.334;2022-08-06T10:59:14;93128.81;;;32.37;31.95
12475;BME280;6302;42.624;23.334;2022-08-06T11:01:48;93122.50;;;32.49;32.42
12475;BME280;6302;42.624;23.334;2022-08-06T11:04:23;93114.66;;;32.74;32.92
12475;BME280;6302;42.624;23.334;2022-08-06T11:07:27;93114.94;;;33.19;31.58
12475;BME280;6302;42.624;23.334;2022-08-06T11:10:07;93121.47;;;33.09;31.41
12475;BME280;6302;42.624;23.334;2022-08-06T11:12:49;93111.28;;;32.89;32.29
12475;BME280;6302;42.624;23.334;2022-08-06T11:15:19;93119.06;;;32.77;31.08
12475;BME280;6302;42.624;23.334;2022-08-06T11:17:48;93119.75;;;32.49;31.65
12475;BME280;6302;42.624;23.334;2022-08-06T11:20:35;93122.13;;;32.04;30.79
12475;BME280;6302;42.624;23.334;2022-08-06T11:23:22;93124.56;;;31.61;31.61
12475;BME280;6302;42.624;23.334;2022-08-06T11:25:50;93122.28;;;31.38;32.40
12475;BME280;6302;42.624;23.334;2022-08-06T11:28:18;93120.78;;;31.50;32.76
12475;BME280;6302;42.624;23.334;2022-08-06T11:30:48;93113.38;;;31.72;32.76
12475;BME280;6302;42.624;23.334;2022-08-06T11:33:18;93105.25;;;32.00;31.90
12475;BME280;6302;42.624;23.334;2022-08-06T11:35:47;93111.56;;;32.08;31.76
12475;BME280;6302;42.624;23.334;2022-08-06T11:38:55;93103.59;;;32.38;31.96
12475;BME280;6302;42.624;23.334;2022-08-06T11:41:07;93111.97;;;32.53;31.31
12475;BME280;6302;42.624;23.334;2022-08-06T11:44:03;93117.44;;;32.53;30.57
12475;BME280;6302;42.624;23.334;2022-08-06T11:46:37;93103.78;;;32.20;31.15
12475;BME280;6302;42.624;23.334;2022-08-06T11:49:22;93101.16;;;32.35;31.17
12475;BME280;6302;42.624;23.334;2022-08-06T11:51:51;93109.78;;;32.59;31.91
12475;BME280;6302;42.624;23.334;2022-08-06T11:54:19;93115.28;;;32.59;30.96
12475;BME280;6302;42.624;23.334;2022-08-06T11:57:18;93113.22;;;32.11;32.24
12475;BME280;6302;42.624;23.334;2022-08-06T12:00:00;93116.88;;;31.59;32.40
12475;BME280;6302;42.624;23.334;2022-08-06T12:02:58;93119.34;;;31.23;32.32
12475;BME280;6302;42.624;23.334;2022-08-06T12:05:42;93113.38;;;30.99;32.48
12475;BME280;6302;42.624;23.334;2022-08-06T12:08:21;93116.41;;;30.82;33.02
12475;BME280;6302;42.624;23.334;2022-08-06T12:11:20;93113.78;;;30.76;33.60
12475;BME280;6302;42.624;23.334;2022-08-06T12:13:47;93116.84;;;30.73;34.02
12475;BME280;6302;42.624;23.334;2022-08-06T12:16:29;93103.38;;;30.75;34.76
12475;BME280;6302;42.624;23.334;2022-08-06T12:18:58;93103.59;;;30.64;34.54
12475;BME280;6302;42.624;23.334;2022-08-06T12:21:25;93097.88;;;30.62;33.87
12475;BME280;6302;42.624;23.334;2022-08-06T12:23:52;93099.16;;;30.61;34.71
12475;BME280;6302;42.624;23.334;2022-08-06T12:26:20;93102.94;;;30.71;35.38
12475;BME280;6302;42.624;23.334;2022-08-06T12:28:47;93103.56;;;30.77;34.92
12475;BME280;6302;42.624;23.334;2022-08-06T12:31:28;93098.75;;;30.83;34.74
12475;BME280;6302;42.624;23.334;2022-08-06T12:33:55;93100.94;;;30.84;35.18
12475;BME280;6302;42.624;23.334;2022-08-06T12:36:27;93100.22;;;30.71;35.85
12475;BME280;6302;42.624;23.334;2022-08-06T12:38:55;93101.47;;;30.70;36.28
12475;BME280;6302;42.624;23.334;2022-08-06T12:41:32;93098.72;;;30.70;37.32
12475;BME280;6302;42.624;23.334;2022-08-06T12:43:59;93097.78;;;30.80;36.28
12475;BME280;6302;42.624;23.334;2022-08-06T12:46:26;93091.19;;;30.76;36.41
12475;BME280;6302;42.624;23.334;2022-08-06T12:48:53;93093.16;;;30.75;35.20
12475;BME280;6302;42.624;23.334;2022-08-06T12:51:20;93089.59;;;30.80;34.31
12475;BME280;6302;42.624;23.334;2022-08-06T12:53:50;93085.56;;;30.81;34.77
12475;BME280;6302;42.624;23.334;2022-08-06T12:56:18;93082.72;;;30.87;32.93
12475;BME280;6302;42.624;23.334;2022-08-06T12:58:45;93087.69;;;31.15;32.84
12475;BME280;6302;42.624;23.334;2022-08-06T13:01:21;93086.47;;;31.49;33.92
12475;BME280;6302;42.624;23.334;2022-08-06T13:03:50;93080.13;;;31.55;36.43
12475;BME280;6302;42.624;23.334;2022-08-06T13:06:20;93080.25;;;31.49;35.53
12475;BME280;6302;42.624;23.334;2022-08-06T13:08:51;93061.16;;;31.43;34.33
12475;BME280;6302;42.624;23.334;2022-08-06T13:11:18;93068.91;;;31.45;33.03
12475;BME280;6302;42.624;23.334;2022-08-06T13:13:48;93059.13;;;31.23;34.39
12475;BME280;6302;42.624;23.334;2022-08-06T13:16:16;93077.66;;;31.30;35.32
12475;BME280;6302;42.624;23.334;2022-08-06T13:19:02;93076.19;;;31.16;34.07
12475;BME280;6302;42.624;23.334;2022-08-06T13:21:30;93080.84;;;31.08;34.11